Time;durP1;ratioP1;P1;durP2;ratioP2;P2;SDS_P1;SDS_P2;PMS_P1;PMS_P2;Temp;Humidity;BMP_temperature;BMP_pressure;BME280_temperature;BME280_humidity;BME280_pressure;Samples;Min_cycle;Max_cycle;Signal;HPM_P1;HPM_P2
2022/10/19 00:01:35;;;;;;;9.40;7.10;;;14.70;99.90;;;;;;5026394;28;20190;-56
2022/10/19 00:04:01;;;;;;;9.27;6.15;;;14.70;99.90;;;;;;5028135;28;20754;-56
2022/10/19 00:06:34;;;;;;;11.05;6.55;;;14.80;99.90;;;;;;5018971;28;20200;-56
2022/10/19 00:09:14;;;;;;;8.85;7.70;;;14.50;99.90;;;;;;5025942;28;20663;-56
2022/10/19 00:11:42;;;;;;;12.80;7.15;;;14.30;99.90;;;;;;5013973;28;20170;-56
2022/10/19 00:14:13;;;;;;;11.18;7.18;;;14.40;99.90;;;;;;5015042;28;20732;-56
2022/10/19 00:16:39;;;;;;;10.85;7.70;;;14.30;99.90;;;;;;5018683;28;20297;-57
2022/10/19 00:19:12;;;;;;;9.00;6.95;;;14.20;99.90;;;;;;5023497;28;20193;-56
2022/10/19 00:21:38;;;;;;;8.48;7.43;;;14.10;99.90;;;;;;5010524;28;20235;-56
2022/10/19 00:24:05;;;;;;;9.60;7.30;;;14.30;99.90;;;;;;4996163;28;20217;-56
2022/10/19 00:26:30;;;;;;;11.00;7.32;;;14.00;99.90;;;;;;5013558;28;20280;-55
2022/10/19 00:28:56;;;;;;;11.70;7.00;;;14.40;99.90;;;;;;5017937;28;20221;-56
2022/10/19 00:31:23;;;;;;;9.93;6.60;;;14.20;99.90;;;;;;5018956;28;21005;-55
2022/10/19 00:33:48;;;;;;;8.35;6.75;;;14.30;99.90;;;;;;5024453;28;20453;-55
2022/10/19 00:36:36;;;;;;;6.53;5.93;;;14.40;99.90;;;;;;5022734;28;20178;-55
2022/10/19 00:39:04;;;;;;;8.15;6.88;;;14.50;99.90;;;;;;5029105;28;20214;-55
2022/10/19 00:41:32;;;;;;;10.00;6.88;;;14.20;99.90;;;;;;5013678;28;20183;-56
2022/10/19 00:44:03;;;;;;;10.85;7.10;;;14.10;99.90;;;;;;5009281;28;20241;-56
2022/10/19 00:46:32;;;;;;;8.32;6.40;;;14.00;99.90;;;;;;5032119;28;20599;-57
2022/10/19 00:49:02;;;;;;;8.98;7.50;;;14.30;99.90;;;;;;5033464;28;20702;-55
2022/10/19 00:51:30;;;;;;;10.10;7.72;;;14.10;99.90;;;;;;5025562;28;20749;-59
2022/10/19 00:53:56;;;;;;;10.25;7.90;;;14.00;99.90;;;;;;5012928;28;20721;-56
2022/10/19 00:56:22;;;;;;;10.00;7.30;;;14.00;99.90;;;;;;5009986;28;20686;-56
2022/10/19 00:58:48;;;;;;;9.73;8.00;;;14.50;99.90;;;;;;5005249;28;20195;-56
2022/10/19 01:01:18;;;;;;;8.53;7.43;;;14.10;99.90;;;;;;5013752;28;20429;-57
2022/10/19 01:03:44;;;;;;;9.75;6.35;;;13.90;99.90;;;;;;5012818;28;20449;-55
2022/10/19 01:06:13;;;;;;;11.10;7.28;;;14.10;99.90;;;;;;5011302;28;20199;-56
2022/10/19 01:08:39;;;;;;;8.40;7.03;;;14.20;99.90;;;;;;4988620;28;20210;-55
2022/10/19 01:11:46;;;;;;;9.17;6.63;;;14.40;99.90;;;;;;5017598;28;20194;-56
2022/10/19 01:14:46;;;;;;;10.75;7.00;;;14.40;99.90;;;;;;5000501;28;20229;-56
2022/10/19 01:17:34;;;;;;;7.80;6.97;;;14.40;99.90;;;;;;5016843;28;20198;-56
2022/10/19 01:20:25;;;;;;;7.95;6.60;;;14.20;99.90;;;;;;5003972;28;20682;-57
2022/10/19 01:23:17;;;;;;;9.73;5.70;;;14.40;99.90;;;;;;5018678;28;20281;-55
2022/10/19 01:25:54;;;;;;;8.70;5.90;;;14.40;99.90;;;;;;5019806;28;20186;-56
2022/10/19 01:28:43;;;;;;;7.40;5.97;;;14.40;99.90;;;;;;5023336;28;20198;-56
2022/10/19 01:31:41;;;;;;;8.00;6.05;;;14.40;99.90;;;;;;5007753;28;20178;-56
2022/10/19 01:34:18;;;;;;;7.15;5.90;;;14.70;99.90;;;;;;5022729;28;20202;-56
2022/10/19 01:37:11;;;;;;;8.18;6.43;;;14.60;99.90;;;;;;5022960;28;20194;-56
2022/10/19 01:39:52;;;;;;;9.27;6.55;;;14.60;99.90;;;;;;5015995;28;20225;-56
2022/10/19 01:42:34;;;;;;;8.45;6.90;;;14.40;99.90;;;;;;5018630;28;20739;-56
2022/10/19 01:45:06;;;;;;;8.00;6.15;;;14.90;99.90;;;;;;5014183;28;20207;-56
2022/10/19 01:47:41;;;;;;;7.82;6.35;;;14.70;99.90;;;;;;5013343;28;20248;-56
2022/10/19 01:50:17;;;;;;;8.45;6.22;;;14.80;99.90;;;;;;5012348;28;20210;-56
2022/10/19 01:52:43;;;;;;;11.38;6.82;;;14.80;99.90;;;;;;5011095;28;20190;-56
2022/10/19 01:55:13;;;;;;;6.40;5.80;;;14.90;99.90;;;;;;5013360;28;20225;-56
2022/10/19 01:57:46;;;;;;;8.27;6.45;;;14.70;99.90;;;;;;5008131;28;20445;-56
2022/10/19 02:00:15;;;;;;;7.35;6.22;;;14.90;99.90;;;;;;5017255;28;20196;-56
2022/10/19 02:02:51;;;;;;;10.43;6.90;;;14.90;99.90;;;;;;5023002;28;20193;-56
2022/10/19 02:05:20;;;;;;;12.82;6.57;;;14.80;99.90;;;;;;5011909;28;20198;-55
2022/10/19 02:07:53;;;;;;;6.50;5.90;;;15.00;99.90;;;;;;5011570;28;20171;-57
2022/10/19 02:10:20;;;;;;;7.15;6.53;;;15.30;99.90;;;;;;5012015;28;20209;-55
2022/10/19 02:12:47;;;;;;;6.47;5.82;;;15.30;99.90;;;;;;5012721;28;20652;-56
2022/10/19 02:15:17;;;;;;;8.93;6.25;;;15.00;99.90;;;;;;5013514;28;20301;-57
2022/10/19 02:17:49;;;;;;;7.70;6.72;;;15.20;99.90;;;;;;5019714;28;20690;-56
2022/10/19 02:20:16;;;;;;;8.65;6.55;;;14.90;99.90;;;;;;5019018;28;20217;-56
2022/10/19 02:22:41;;;;;;;8.40;7.20;;;14.90;99.90;;;;;;5022647;28;20179;-56
2022/10/19 02:25:08;;;;;;;13.90;6.30;;;15.10;99.90;;;;;;5012795;28;20206;-57
2022/10/19 02:27:35;;;;;;;8.40;6.57;;;15.10;99.90;;;;;;5023333;28;20484;-56
2022/10/19 02:30:02;;;;;;;9.50;6.22;;;15.10;99.90;;;;;;5015753;28;20179;-56
2022/10/19 02:32:28;;;;;;;8.98;6.80;;;15.00;99.90;;;;;;5028175;28;20218;-57
2022/10/19 02:34:53;;;;;;;8.00;6.50;;;15.20;99.90;;;;;;5016356;28;20244;-56
2022/10/19 02:37:19;;;;;;;8.07;5.90;;;15.10;99.90;;;;;;5030803;28;20190;-55
2022/10/19 02:39:45;;;;;;;7.30;6.60;;;15.30;99.90;;;;;;5018643;28;20536;-56
2022/10/19 02:42:23;;;;;;;9.23;6.93;;;15.20;99.90;;;;;;5009736;28;20188;-56
2022/10/19 02:45:05;;;;;;;13.00;7.50;;;15.30;99.90;;;;;;5005650;28;20210;-56
2022/10/19 02:47:40;;;;;;;15.10;8.77;;;15.30;99.90;;;;;;5004935;28;20187;-56
2022/10/19 02:50:08;;;;;;;15.90;8.68;;;15.30;99.90;;;;;;5013298;28;20179;-56
2022/10/19 02:52:36;;;;;;;19.80;10.60;;;15.20;99.90;;;;;;5008202;28;20236;-55
2022/10/19 02:55:03;;;;;;;20.98;11.05;;;15.30;99.90;;;;;;5011752;28;20607;-55
2022/10/19 02:57:31;;;;;;;22.30;9.45;;;15.40;99.90;;;;;;4997038;28;20180;-56
2022/10/19 02:59:56;;;;;;;21.27;10.10;;;15.40;99.90;;;;;;5017709;28;20712;-56
2022/10/19 03:02:23;;;;;;;23.60;10.40;;;15.30;99.90;;;;;;5019479;28;20302;-55
2022/10/19 03:04:48;;;;;;;22.20;10.48;;;14.80;99.90;;;;;;5000567;28;20828;-55
2022/10/19 03:07:17;;;;;;;25.00;10.27;;;15.00;99.90;;;;;;5010864;28;20206;-56
2022/10/19 03:09:43;;;;;;;20.65;10.57;;;15.50;99.90;;;;;;5016210;28;20203;-56
2022/10/19 03:12:11;;;;;;;19.13;10.68;;;15.30;99.90;;;;;;4999610;28;20179;-56
2022/10/19 03:14:37;;;;;;;18.65;10.73;;;15.40;99.90;;;;;;5009641;28;20260;-56
2022/10/19 03:17:03;;;;;;;20.10;11.07;;;15.10;99.90;;;;;;4998191;28;20277;-56
2022/10/19 03:19:29;;;;;;;23.45;11.68;;;15.10;99.90;;;;;;5018276;28;20306;-56
2022/10/19 03:21:54;;;;;;;17.37;11.53;;;15.00;99.90;;;;;;5009546;28;20715;-56
2022/10/19 03:24:20;;;;;;;16.00;10.83;;;15.00;99.90;;;;;;5005291;28;20217;-56
2022/10/19 03:26:46;;;;;;;18.60;12.00;;;15.30;99.90;;;;;;4995206;28;20182;-56
2022/10/19 03:29:11;;;;;;;22.83;13.17;;;15.30;99.90;;;;;;5015925;28;20663;-56
2022/10/19 03:31:37;;;;;;;21.50;13.60;;;15.60;99.90;;;;;;5018112;28;20191;-57
2022/10/19 03:34:02;;;;;;;21.73;13.37;;;15.40;99.90;;;;;;5010693;28;20333;-56
2022/10/19 03:36:33;;;;;;;30.03;14.20;;;15.30;99.90;;;;;;5021469;28;20191;-56
2022/10/19 03:39:01;;;;;;;25.85;14.40;;;15.50;99.90;;;;;;5019110;28;20243;-56
2022/10/19 03:41:30;;;;;;;25.33;14.85;;;15.70;99.90;;;;;;5015775;28;20257;-56
2022/10/19 03:43:56;;;;;;;28.30;15.02;;;15.70;99.90;;;;;;5003705;28;20210;-56
2022/10/19 03:46:22;;;;;;;24.58;14.07;;;15.60;99.90;;;;;;5009621;28;20199;-56
2022/10/19 03:48:48;;;;;;;26.25;15.48;;;15.80;99.90;;;;;;5018668;28;20576;-56
2022/10/19 03:51:19;;;;;;;27.45;14.68;;;15.80;99.90;;;;;;5014038;28;20527;-57
2022/10/19 03:53:45;;;;;;;26.15;15.05;;;15.70;99.90;;;;;;4990797;28;20282;-56
2022/10/19 03:56:19;;;;;;;29.73;15.60;;;15.70;99.90;;;;;;5010841;28;20179;-56
2022/10/19 03:58:46;;;;;;;24.70;15.90;;;15.80;99.90;;;;;;5002344;28;20186;-56
2022/10/19 04:01:15;;;;;;;22.95;14.43;;;15.70;99.90;;;;;;5020400;28;20195;-56
2022/10/19 04:03:41;;;;;;;24.30;14.45;;;15.70;99.90;;;;;;5014403;28;20260;-56
2022/10/19 04:06:11;;;;;;;25.20;14.45;;;15.80;99.90;;;;;;5013954;28;20651;-60
2022/10/19 04:08:37;;;;;;;23.30;15.00;;;15.70;99.90;;;;;;5025655;28;20237;-56
2022/10/19 04:11:05;;;;;;;25.73;14.23;;;15.70;99.90;;;;;;5019690;28;20213;-57
2022/10/19 04:13:32;;;;;;;26.13;15.52;;;15.90;99.90;;;;;;5019768;28;20210;-56
2022/10/19 04:15:58;;;;;;;19.42;13.90;;;15.90;99.90;;;;;;5009364;28;20194;-57
2022/10/19 04:18:24;;;;;;;24.33;14.47;;;15.90;99.90;;;;;;5023288;28;20198;-57
2022/10/19 04:21:01;;;;;;;25.38;14.32;;;15.70;99.90;;;;;;5025303;28;20507;-57
2022/10/19 04:23:31;;;;;;;24.80;16.08;;;15.80;99.90;;;;;;5015081;28;20627;-57
2022/10/19 04:26:05;;;;;;;28.48;14.60;;;15.70;99.90;;;;;;5019611;28;20647;-56
2022/10/19 04:28:32;;;;;;;26.83;15.75;;;15.70;99.90;;;;;;5003158;28;20629;-57
2022/10/19 04:31:02;;;;;;;25.90;14.25;;;16.00;99.90;;;;;;5010818;28;20596;-56
2022/10/19 04:33:27;;;;;;;24.80;15.10;;;15.70;99.90;;;;;;5012958;28;20209;-56
2022/10/19 04:36:00;;;;;;;21.33;13.53;;;15.90;99.90;;;;;;5006918;28;20175;-56
2022/10/19 04:38:27;;;;;;;26.25;16.35;;;16.10;99.90;;;;;;5016220;28;20239;-56
2022/10/19 04:40:54;;;;;;;22.98;14.05;;;15.90;99.90;;;;;;5009223;28;20683;-56
2022/10/19 04:43:21;;;;;;;23.52;15.30;;;15.90;99.90;;;;;;5007674;28;20649;-56
2022/10/19 04:45:46;;;;;;;22.52;14.45;;;15.90;99.90;;;;;;5007483;28;20190;-56
2022/10/19 04:48:12;;;;;;;23.77;14.13;;;15.80;99.90;;;;;;5009111;28;20221;-56
2022/10/19 04:50:38;;;;;;;22.33;15.10;;;16.00;99.90;;;;;;5006715;28;20214;-57
2022/10/19 04:53:03;;;;;;;20.90;14.90;;;15.80;99.90;;;;;;5010477;28;20453;-56
2022/10/19 04:55:29;;;;;;;25.43;16.07;;;15.90;99.90;;;;;;5007000;28;20253;-56
2022/10/19 04:57:54;;;;;;;19.53;15.10;;;15.80;99.90;;;;;;5009521;28;20656;-57
2022/10/19 05:00:20;;;;;;;23.20;16.50;;;16.00;99.90;;;;;;5025688;28;20186;-57
2022/10/19 05:02:46;;;;;;;19.97;15.53;;;15.90;99.90;;;;;;5009541;28;20664;-57
2022/10/19 05:05:13;;;;;;;22.63;15.45;;;16.00;99.90;;;;;;5005621;28;20749;-57
2022/10/19 05:07:38;;;;;;;24.92;15.15;;;16.00;99.90;;;;;;5010736;28;20179;-57
2022/10/19 05:10:05;;;;;;;21.07;15.50;;;15.80;99.90;;;;;;5010172;28;20175;-57
2022/10/19 05:12:31;;;;;;;20.08;13.95;;;16.20;99.90;;;;;;5007441;28;20230;-57
2022/10/19 05:14:56;;;;;;;20.57;14.87;;;16.00;99.90;;;;;;5009621;28;20619;-56
2022/10/19 05:17:22;;;;;;;21.87;14.47;;;16.30;99.90;;;;;;5012811;28;20249;-56
2022/10/19 05:19:47;;;;;;;19.37;14.20;;;16.50;99.90;;;;;;5012352;28;20596;-56
2022/10/19 05:22:13;;;;;;;20.93;14.00;;;16.30;99.90;;;;;;5003956;28;20194;-57
2022/10/19 05:24:48;;;;;;;21.97;14.43;;;16.40;99.90;;;;;;5009554;28;20260;-56
2022/10/19 05:27:13;;;;;;;17.23;13.32;;;16.40;99.90;;;;;;5005310;28;20193;-56
2022/10/19 05:29:39;;;;;;;20.27;14.10;;;16.40;99.90;;;;;;5006769;28;20215;-56
2022/10/19 05:32:05;;;;;;;19.13;14.57;;;16.50;99.90;;;;;;4994424;28;20226;-56
2022/10/19 05:34:30;;;;;;;20.67;14.03;;;16.50;99.90;;;;;;5004410;28;20690;-57
2022/10/19 05:36:56;;;;;;;18.93;14.63;;;16.50;99.90;;;;;;5028035;28;20225;-56
2022/10/19 05:39:22;;;;;;;20.53;14.40;;;16.70;99.90;;;;;;5029826;28;20193;-56
2022/10/19 05:41:48;;;;;;;19.73;15.13;;;16.40;99.90;;;;;;5011377;28;20196;-56
2022/10/19 05:44:21;;;;;;;19.03;15.10;;;16.50;99.90;;;;;;5010440;28;20213;-56
2022/10/19 05:46:49;;;;;;;18.52;15.15;;;16.50;99.90;;;;;;5013157;28;20472;-56
2022/10/19 05:49:17;;;;;;;17.05;14.70;;;16.30;99.90;;;;;;5030676;28;20198;-57
2022/10/19 05:51:43;;;;;;;18.02;14.73;;;16.30;99.90;;;;;;5011274;28;20675;-56
2022/10/19 05:54:10;;;;;;;18.70;15.57;;;16.50;99.90;;;;;;5030090;28;20245;-57
2022/10/19 05:56:36;;;;;;;17.83;14.60;;;16.50;99.90;;;;;;5021699;28;20178;-56
2022/10/19 05:59:04;;;;;;;17.27;14.40;;;16.70;99.90;;;;;;5015160;28;20190;-57
2022/10/19 06:01:30;;;;;;;18.05;15.38;;;16.50;99.90;;;;;;5026039;28;20619;-57
2022/10/19 06:03:58;;;;;;;17.13;14.32;;;16.70;99.90;;;;;;5008114;28;20288;-57
2022/10/19 06:06:25;;;;;;;18.25;16.08;;;16.30;99.90;;;;;;5010024;28;20473;-57
2022/10/19 06:08:52;;;;;;;18.60;15.45;;;16.30;99.90;;;;;;5010915;28;20539;-56
2022/10/19 06:11:24;;;;;;;15.75;14.15;;;16.20;99.90;;;;;;5011270;28;20179;-56
2022/10/19 06:13:53;;;;;;;14.80;13.05;;;16.00;99.90;;;;;;5022618;28;20757;-57
2022/10/19 06:16:19;;;;;;;16.67;14.85;;;16.20;99.90;;;;;;5015701;28;20232;-57
2022/10/19 06:18:45;;;;;;;16.25;13.18;;;16.30;99.90;;;;;;5017409;28;20262;-56
2022/10/19 06:21:17;;;;;;;16.67;13.52;;;16.50;99.90;;;;;;5003160;28;20191;-56
2022/10/19 06:23:43;;;;;;;13.45;12.15;;;16.30;99.90;;;;;;5010057;28;20210;-56
2022/10/19 06:26:12;;;;;;;17.38;12.25;;;16.40;99.90;;;;;;5010929;28;20187;-56
2022/10/19 06:28:40;;;;;;;13.80;12.40;;;16.20;99.90;;;;;;5010326;28;20573;-57
2022/10/19 06:31:06;;;;;;;14.45;11.60;;;16.20;99.90;;;;;;5010969;28;20803;-57
2022/10/19 06:33:32;;;;;;;15.55;11.32;;;16.30;99.90;;;;;;5010843;28;20242;-56
2022/10/19 06:36:08;;;;;;;13.50;12.07;;;16.40;99.90;;;;;;5010637;28;20187;-56
2022/10/19 06:38:34;;;;;;;15.55;12.07;;;16.50;99.90;;;;;;5007699;28;20686;-56
2022/10/19 06:41:00;;;;;;;12.77;11.30;;;16.40;99.90;;;;;;5010987;28;20196;-57
2022/10/19 06:43:26;;;;;;;14.48;11.27;;;16.30;99.90;;;;;;5009715;28;20211;-56
2022/10/19 06:45:51;;;;;;;13.30;11.30;;;16.50;99.90;;;;;;5011158;28;20190;-57
2022/10/19 06:48:17;;;;;;;12.20;10.83;;;16.70;99.90;;;;;;5010478;28;20209;-57
2022/10/19 06:50:43;;;;;;;12.30;11.00;;;16.80;99.90;;;;;;5020197;28;20181;-57
2022/10/19 06:53:08;;;;;;;14.37;11.10;;;16.40;99.90;;;;;;5005363;28;20194;-56
2022/10/19 06:55:35;;;;;;;12.63;11.33;;;16.60;99.90;;;;;;5020876;28;20684;-56
2022/10/19 06:58:01;;;;;;;14.70;11.73;;;16.70;99.90;;;;;;5008827;28;20249;-57
2022/10/19 07:00:30;;;;;;;14.33;12.00;;;16.50;99.90;;;;;;5011033;28;20598;-57
2022/10/19 07:02:58;;;;;;;14.18;12.68;;;16.70;99.90;;;;;;5010634;28;20536;-57
2022/10/19 07:05:23;;;;;;;15.88;13.18;;;16.60;99.90;;;;;;5011015;28;20581;-57
2022/10/19 07:07:49;;;;;;;12.87;11.40;;;16.80;99.90;;;;;;5014156;28;20183;-57
2022/10/19 07:10:15;;;;;;;14.03;11.57;;;16.80;99.90;;;;;;5018889;28;20218;-57
2022/10/19 07:12:41;;;;;;;14.93;11.37;;;16.90;99.90;;;;;;5004461;28;20597;-57
2022/10/19 07:15:07;;;;;;;13.63;11.70;;;17.10;99.90;;;;;;5020595;28;20461;-57
2022/10/19 07:17:32;;;;;;;13.70;12.07;;;17.20;99.90;;;;;;5013475;28;20682;-57
2022/10/19 07:19:58;;;;;;;14.90;12.00;;;17.00;99.90;;;;;;5006098;28;20187;-57
2022/10/19 07:22:24;;;;;;;14.20;11.63;;;17.40;99.90;;;;;;5010519;28;20607;-56
2022/10/19 07:24:51;;;;;;;13.13;11.83;;;17.20;99.90;;;;;;5019650;28;20308;-56
2022/10/19 07:27:16;;;;;;;11.65;10.45;;;17.10;99.90;;;;;;5008900;28;20272;-56
2022/10/19 07:29:42;;;;;;;12.87;11.53;;;17.30;99.90;;;;;;5010730;28;20241;-57
2022/10/19 07:32:08;;;;;;;11.60;10.40;;;17.20;99.90;;;;;;5026175;28;20516;-57
2022/10/19 07:34:33;;;;;;;10.60;9.53;;;17.20;99.90;;;;;;5019813;28;20457;-56
2022/10/19 07:36:59;;;;;;;9.40;8.40;;;17.10;99.90;;;;;;5004056;28;20260;-56
2022/10/19 07:39:26;;;;;;;10.20;8.63;;;17.30;99.90;;;;;;5010445;28;20491;-57
2022/10/19 07:41:52;;;;;;;9.40;8.20;;;17.50;99.90;;;;;;5016761;28;20685;-56
2022/10/19 07:44:17;;;;;;;9.70;8.70;;;17.50;99.90;;;;;;4982937;28;20214;-56
2022/10/19 07:46:43;;;;;;;10.27;9.27;;;17.20;99.90;;;;;;5010130;28;20265;-57
2022/10/19 07:49:15;;;;;;;9.23;8.30;;;17.20;99.90;;;;;;5010426;28;20219;-57
2022/10/19 07:51:41;;;;;;;11.05;9.00;;;17.40;99.90;;;;;;5009637;28;20230;-57
2022/10/19 07:54:07;;;;;;;8.77;7.97;;;17.20;99.90;;;;;;5000878;28;20219;-57
2022/10/19 07:56:32;;;;;;;8.68;7.78;;;17.20;99.90;;;;;;5010094;28;20573;-56
2022/10/19 07:58:59;;;;;;;9.50;7.97;;;17.40;99.90;;;;;;5006719;28;20206;-57
2022/10/19 08:01:30;;;;;;;9.68;8.68;;;17.40;99.90;;;;;;5009897;28;20240;-57
2022/10/19 08:03:57;;;;;;;9.32;8.32;;;17.40;99.90;;;;;;5008722;28;20238;-57
2022/10/19 08:06:23;;;;;;;10.02;8.70;;;17.40;99.90;;;;;;4997533;28;21163;-58
2022/10/19 08:08:49;;;;;;;9.80;8.00;;;17.50;99.90;;;;;;5010258;28;20245;-57
2022/10/19 08:11:16;;;;;;;9.70;8.75;;;17.50;99.90;;;;;;5018012;28;20492;-58
2022/10/19 08:13:42;;;;;;;9.38;8.27;;;17.60;99.90;;;;;;5005431;28;20202;-57
2022/10/19 08:16:29;;;;;;;10.25;8.43;;;17.90;99.90;;;;;;5001502;28;20202;-56
2022/10/19 08:19:00;;;;;;;9.07;8.18;;;17.70;99.90;;;;;;5009635;28;20262;-57
2022/10/19 08:21:27;;;;;;;9.63;8.57;;;18.10;99.90;;;;;;5008991;28;20200;-57
2022/10/19 08:23:53;;;;;;;9.70;8.35;;;18.00;99.90;;;;;;5022802;28;20205;-57
2022/10/19 08:26:19;;;;;;;9.93;8.93;;;17.80;99.90;;;;;;5009788;28;20558;-56
2022/10/19 08:28:45;;;;;;;8.85;7.95;;;17.90;99.90;;;;;;5009556;28;20293;-56
2022/10/19 08:31:29;;;;;;;8.57;7.77;;;17.90;99.90;;;;;;5009892;28;20294;-57
2022/10/19 08:33:54;;;;;;;9.10;8.20;;;17.80;99.90;;;;;;5009530;28;20625;-57
2022/10/19 08:36:20;;;;;;;8.20;7.33;;;17.90;99.90;;;;;;5010386;28;20210;-57
2022/10/19 08:38:48;;;;;;;9.67;8.67;;;18.10;99.90;;;;;;5014513;28;20186;-57
2022/10/19 08:41:21;;;;;;;8.70;7.60;;;17.80;99.90;;;;;;5017838;28;20212;-57
2022/10/19 08:44:06;;;;;;;8.75;7.95;;;18.10;99.90;;;;;;4999673;28;20739;-57
2022/10/19 08:46:50;;;;;;;9.50;7.50;;;17.90;99.90;;;;;;5012753;28;20249;-57
2022/10/19 08:49:20;;;;;;;9.82;8.82;;;18.00;99.90;;;;;;5018456;28;20288;-57
2022/10/19 08:51:52;;;;;;;8.07;7.28;;;18.20;99.90;;;;;;5013076;28;20203;-56
2022/10/19 08:54:18;;;;;;;8.18;7.38;;;18.10;99.90;;;;;;5013356;28;20203;-57
2022/10/19 08:56:52;;;;;;;7.30;6.60;;;18.10;99.90;;;;;;5012947;28;20179;-56
2022/10/19 08:59:20;;;;;;;7.85;7.15;;;17.90;99.90;;;;;;5014651;28;20434;-57
2022/10/19 09:01:54;;;;;;;10.50;8.43;;;17.90;99.90;;;;;;5022706;28;20218;-56
2022/10/19 09:04:36;;;;;;;6.88;5.97;;;18.20;99.90;;;;;;5026549;28;20211;-57
2022/10/19 09:07:29;;;;;;;6.95;6.30;;;18.00;99.90;;;;;;5008667;28;20299;-57
2022/10/19 09:10:03;;;;;;;8.02;7.32;;;17.60;99.90;;;;;;5004849;28;20226;-57
2022/10/19 09:12:52;;;;;;;8.80;8.00;;;17.70;99.90;;;;;;5018864;28;20192;-56
2022/10/19 09:15:26;;;;;;;7.90;7.10;;;17.70;99.90;;;;;;5023730;28;20218;-58
2022/10/19 09:17:52;;;;;;;7.10;6.40;;;17.70;99.90;;;;;;5032100;28;20199;-56
2022/10/19 09:20:25;;;;;;;8.07;7.37;;;17.50;99.90;;;;;;5014253;28;20187;-56
2022/10/19 09:23:22;;;;;;;7.28;6.45;;;17.50;99.90;;;;;;5026859;28;20435;-55
2022/10/19 09:25:50;;;;;;;7.13;6.43;;;17.50;99.90;;;;;;5002510;28;20772;-56
2022/10/19 09:28:40;;;;;;;9.77;7.10;;;17.50;99.90;;;;;;5005335;28;20206;-56
2022/10/19 09:31:13;;;;;;;7.65;6.95;;;17.40;99.90;;;;;;5013193;28;20636;-56
2022/10/19 09:33:42;;;;;;;7.10;6.38;;;17.30;99.90;;;;;;5012598;28;20573;-55
2022/10/19 09:36:08;;;;;;;6.20;5.65;;;17.30;99.90;;;;;;5009264;28;20492;-56
2022/10/19 09:38:34;;;;;;;7.47;6.75;;;17.70;99.90;;;;;;5009726;28;20198;-55
2022/10/19 09:41:19;;;;;;;8.33;7.60;;;17.30;99.90;;;;;;5013566;28;20187;-55
2022/10/19 09:43:52;;;;;;;8.35;7.55;;;17.50;99.90;;;;;;5002269;28;20275;-55
2022/10/19 09:46:26;;;;;;;7.43;6.72;;;17.30;99.90;;;;;;5012279;28;20182;-55
2022/10/19 09:48:52;;;;;;;7.95;7.15;;;17.30;99.90;;;;;;5012234;28;20206;-55
2022/10/19 09:51:20;;;;;;;8.17;7.43;;;17.20;99.90;;;;;;5010612;28;20195;-55
2022/10/19 09:53:55;;;;;;;8.30;7.60;;;17.00;99.90;;;;;;5001637;28;20276;-56
2022/10/19 09:56:26;;;;;;;7.60;6.88;;;17.00;99.90;;;;;;5011562;28;20175;-57
2022/10/19 09:58:56;;;;;;;7.63;6.80;;;17.10;99.90;;;;;;5007193;28;20187;-57
2022/10/19 10:01:33;;;;;;;6.82;6.20;;;17.20;99.90;;;;;;5012398;28;20415;-56
2022/10/19 10:04:13;;;;;;;7.15;6.55;;;16.80;99.90;;;;;;5011637;28;20280;-56
2022/10/19 10:06:41;;;;;;;6.68;6.07;;;17.10;99.90;;;;;;4995185;28;20626;-56
2022/10/19 10:09:14;;;;;;;6.75;6.15;;;16.90;99.90;;;;;;5007014;28;20215;-56
2022/10/19 10:11:40;;;;;;;7.40;6.70;;;17.20;99.90;;;;;;5012298;28;20265;-57
2022/10/19 10:14:23;;;;;;;6.73;6.13;;;17.40;99.90;;;;;;5009734;28;20237;-56
2022/10/19 10:17:00;;;;;;;6.57;5.80;;;17.20;99.90;;;;;;5011878;28;20188;-57
2022/10/19 10:19:28;;;;;;;6.43;5.82;;;17.30;99.90;;;;;;5011510;28;20186;-58
2022/10/19 10:21:56;;;;;;;5.75;5.25;;;17.40;99.90;;;;;;5005576;28;20217;-56
2022/10/19 10:24:28;;;;;;;4.93;4.53;;;17.50;99.90;;;;;;5011594;28;20226;-56
2022/10/19 10:26:59;;;;;;;5.13;4.72;;;17.50;99.90;;;;;;5010750;28;20187;-56
2022/10/19 10:29:29;;;;;;;4.40;4.10;;;17.50;99.90;;;;;;4998924;28;20707;-55
2022/10/19 10:32:27;;;;;;;5.03;4.63;;;17.50;99.90;;;;;;5016359;28;20186;-55
2022/10/19 10:35:01;;;;;;;5.50;5.00;;;17.50;99.90;;;;;;5011326;28;20210;-55
2022/10/19 10:37:35;;;;;;;7.15;6.47;;;17.60;99.90;;;;;;5011002;28;20599;-55
2022/10/19 10:40:01;;;;;;;5.82;5.32;;;17.50;99.90;;;;;;5005828;28;20213;-56
2022/10/19 10:42:39;;;;;;;6.20;5.70;;;17.40;99.90;;;;;;5006049;28;20677;-55
2022/10/19 10:45:19;;;;;;;6.15;5.65;;;17.50;99.90;;;;;;5007206;28;20454;-56
2022/10/19 10:47:47;;;;;;;5.53;5.13;;;17.60;99.90;;;;;;5012276;28;20217;-55
2022/10/19 10:50:22;;;;;;;6.00;5.50;;;17.50;99.90;;;;;;5012620;28;20211;-58
2022/10/19 10:53:04;;;;;;;5.90;5.43;;;17.50;99.90;;;;;;5007490;28;20201;-57
2022/10/19 10:55:30;;;;;;;5.40;4.90;;;17.60;99.90;;;;;;4999310;28;20578;-55
2022/10/19 10:58:15;;;;;;;4.60;4.20;;;18.10;99.90;;;;;;5015540;28;20207;-57
2022/10/19 11:00:41;;;;;;;5.00;4.60;;;18.40;99.90;;;;;;5010740;28;20186;-56
2022/10/19 11:03:16;;;;;;;5.18;4.78;;;18.10;99.90;;;;;;5010275;28;20188;-56
2022/10/19 11:06:01;;;;;;;4.97;4.30;;;18.30;99.90;;;;;;5017257;28;20819;-56
2022/10/19 11:08:45;;;;;;;5.35;4.05;;;18.40;99.90;;;;;;4998517;28;20206;-56
2022/10/19 11:11:20;;;;;;;12.75;11.85;;;18.50;99.90;;;;;;5010551;28;20549;-57
2022/10/19 11:13:48;;;;;;;4.35;4.05;;;18.70;99.90;;;;;;5005826;28;20252;-57
2022/10/19 11:16:41;;;;;;;5.22;3.45;;;18.80;99.90;;;;;;5023160;28;20183;-57
2022/10/19 11:19:26;;;;;;;4.28;3.80;;;19.20;99.90;;;;;;5009041;28;20210;-57
2022/10/19 11:21:51;;;;;;;4.53;4.13;;;18.80;99.90;;;;;;5009880;28;20892;-57
2022/10/19 11:24:39;;;;;;;5.13;4.03;;;18.60;99.90;;;;;;5010694;28;20220;-56
2022/10/19 11:27:13;;;;;;;5.68;3.80;;;18.60;99.90;;;;;;5007710;28;20202;-57
2022/10/19 11:29:57;;;;;;;4.00;3.70;;;18.50;99.90;;;;;;5000238;28;20266;-56
2022/10/19 11:32:28;;;;;;;3.70;3.40;;;18.50;99.90;;;;;;5009860;28;20244;-57
2022/10/19 11:35:11;;;;;;;3.90;3.60;;;18.50;99.90;;;;;;5010106;28;20207;-55
2022/10/19 11:38:07;;;;;;;5.57;4.15;;;18.60;99.90;;;;;;5008149;28;20179;-56
2022/10/19 11:40:35;;;;;;;4.07;3.78;;;18.70;99.90;;;;;;5015672;28;20183;-57
2022/10/19 11:43:33;;;;;;;4.47;4.10;;;18.80;99.90;;;;;;5000206;28;20234;-56
2022/10/19 11:46:08;;;;;;;4.00;3.70;;;18.80;99.90;;;;;;4990453;28;20183;-57
2022/10/19 11:48:50;;;;;;;4.03;3.72;;;18.90;99.90;;;;;;5008281;28;20326;-55
2022/10/19 11:51:26;;;;;;;4.97;3.28;;;18.90;99.90;;;;;;5010208;28;20193;-56
2022/10/19 11:54:14;;;;;;;3.13;2.92;;;18.90;99.90;;;;;;4999354;28;20249;-55
2022/10/19 11:56:50;;;;;;;3.72;3.42;;;18.90;99.90;;;;;;5004483;28;20198;-57
2022/10/19 11:59:18;;;;;;;4.50;4.10;;;18.90;99.90;;;;;;5003608;28;20210;-57
2022/10/19 12:01:59;;;;;;;4.55;4.15;;;18.70;99.90;;;;;;5004302;28;20190;-56
2022/10/19 12:04:42;;;;;;;5.10;4.60;;;18.60;99.90;;;;;;5014135;28;20222;-56
2022/10/19 12:07:40;;;;;;;4.80;4.40;;;18.60;99.90;;;;;;5006643;28;20199;-57
2022/10/19 12:10:21;;;;;;;4.07;3.78;;;18.60;99.90;;;;;;4987228;28;20574;-57
2022/10/19 12:12:54;;;;;;;4.20;3.85;;;18.60;99.90;;;;;;5007063;28;20190;-57
2022/10/19 12:15:29;;;;;;;8.07;4.63;;;18.60;99.90;;;;;;5017629;28;20213;-56
2022/10/19 12:17:59;;;;;;;3.90;3.60;;;18.80;99.90;;;;;;5009767;28;20209;-57
2022/10/19 12:20:35;;;;;;;5.00;4.05;;;19.00;99.90;;;;;;5010703;28;20237;-56
2022/10/19 12:23:20;;;;;;;4.85;4.35;;;19.00;99.90;;;;;;5010273;28;20663;-56
2022/10/19 12:25:47;;;;;;;4.85;4.45;;;19.10;99.90;;;;;;5013818;28;20195;-57
2022/10/19 12:28:28;;;;;;;4.00;3.70;;;19.10;99.90;;;;;;5002383;28;20326;-56
2022/10/19 12:30:55;;;;;;;5.78;4.95;;;19.00;99.90;;;;;;5017910;28;20224;-57
2022/10/19 12:33:30;;;;;;;6.28;4.80;;;19.10;99.90;;;;;;5026330;28;20189;-56
2022/10/19 12:36:13;;;;;;;4.85;4.45;;;19.10;99.90;;;;;;5001991;28;20526;-56
2022/10/19 12:38:48;;;;;;;5.18;4.68;;;19.00;99.90;;;;;;5011144;28;20191;-58
2022/10/19 12:41:33;;;;;;;5.72;5.22;;;19.20;99.90;;;;;;5013947;28;20179;-56
2022/10/19 12:44:20;;;;;;;6.90;6.18;;;19.20;99.90;;;;;;5002809;28;20293;-56
2022/10/19 12:46:50;;;;;;;5.47;4.95;;;19.20;99.90;;;;;;5014712;28;20672;-56
2022/10/19 12:49:28;;;;;;;5.75;4.70;;;19.10;99.90;;;;;;5022502;28;20222;-56
2022/10/19 12:51:55;;;;;;;4.28;3.97;;;19.00;99.90;;;;;;5011698;28;20201;-56
2022/10/19 12:54:27;;;;;;;5.95;4.93;;;19.00;99.90;;;;;;5012937;28;20234;-56
2022/10/19 12:56:55;;;;;;;5.45;4.95;;;18.90;99.90;;;;;;5010720;28;20185;-56
2022/10/19 12:59:27;;;;;;;5.75;5.20;;;18.90;99.90;;;;;;5013007;28;20241;-55